Time;durP1;ratioP1;P1;durP2;ratioP2;P2;SDS_P1;SDS_P2;PMS_P1;PMS_P2;Temp;Humidity;BMP_temperature;BMP_pressure;BME280_temperature;BME280_humidity;BME280_pressure;Samples;Min_cycle;Max_cycle;Signal;HPM_P1;HPM_P2
2024/02/10 00:00:26;;;;;;;11.75;6.97;;;10.90;99.90;;;;;;5031060;28;20033;-54
2024/02/10 00:02:51;;;;;;;8.65;7.07;;;10.90;99.90;;;;;;5030424;28;20398;-52
2024/02/10 00:05:17;;;;;;;19.75;12.45;;;10.90;99.90;;;;;;5033417;28;20026;-54
2024/02/10 00:07:52;;;;;;;10.88;7.45;;;10.90;99.90;;;;;;5032814;28;20033;-52
2024/02/10 00:10:20;;;;;;;6.88;5.70;;;10.90;99.90;;;;;;5032774;28;20041;-53
2024/02/10 00:12:46;;;;;;;7.75;5.10;;;11.00;99.90;;;;;;5032532;28;20034;-53
2024/02/10 00:15:13;;;;;;;9.40;5.75;;;11.00;99.90;;;;;;5030865;28;20036;-49
2024/02/10 00:17:40;;;;;;;5.22;4.53;;;11.00;99.90;;;;;;5030904;28;20368;-52
2024/02/10 00:20:13;;;;;;;5.75;4.70;;;11.00;99.90;;;;;;5030673;28;20018;-52
2024/02/10 00:22:38;;;;;;;5.00;4.25;;;11.00;99.90;;;;;;5030489;28;20025;-51
2024/02/10 00:25:05;;;;;;;5.30;3.67;;;11.00;99.90;;;;;;5030292;28;20638;-55
2024/02/10 00:27:31;;;;;;;5.40;3.92;;;11.00;99.90;;;;;;5030709;28;20108;-52
2024/02/10 00:29:56;;;;;;;3.50;3.17;;;11.00;99.90;;;;;;5047370;28;20112;-49
2024/02/10 00:32:22;;;;;;;5.95;3.72;;;11.00;99.90;;;;;;5032351;28;20551;-50
2024/02/10 00:34:48;;;;;;;4.63;3.60;;;11.00;99.90;;;;;;5032979;28;20068;-52
2024/02/10 00:37:16;;;;;;;3.67;3.40;;;11.10;99.90;;;;;;5033235;28;20029;-50
2024/02/10 00:39:43;;;;;;;5.22;2.95;;;11.10;99.90;;;;;;5032924;28;20390;-49
2024/02/10 00:42:08;;;;;;;4.15;3.13;;;11.00;99.90;;;;;;5033114;28;20021;-49
2024/02/10 00:44:34;;;;;;;4.47;2.78;;;11.00;99.90;;;;;;5033216;28;20289;-49
2024/02/10 00:47:12;;;;;;;6.13;3.17;;;11.00;99.90;;;;;;5032697;28;20025;-49
2024/02/10 00:49:39;;;;;;;4.60;3.08;;;11.10;99.90;;;;;;5032302;28;20021;-51
2024/02/10 00:52:08;;;;;;;3.03;2.72;;;11.10;99.90;;;;;;5033280;28;20030;-48
2024/02/10 00:54:34;;;;;;;3.80;2.90;;;11.10;99.90;;;;;;5032946;28;20079;-47
2024/02/10 00:57:00;;;;;;;5.60;3.05;;;11.10;99.90;;;;;;5033380;28;20024;-53
2024/02/10 00:59:26;;;;;;;3.40;2.58;;;11.10;99.90;;;;;;5031544;23;20046;-47
2024/02/10 01:01:51;;;;;;;5.63;3.05;;;11.10;99.90;;;;;;4976535;28;20018;-49
2024/02/10 01:04:19;;;;;;;7.85;5.43;;;11.10;99.90;;;;;;4993408;28;20455;-44
2024/02/10 01:06:47;;;;;;;10.15;7.10;;;11.20;99.90;;;;;;4993387;28;20506;-49
2024/02/10 01:09:14;;;;;;;6.85;3.20;;;11.10;99.90;;;;;;4976116;28;20122;-45
2024/02/10 01:11:43;;;;;;;3.40;3.10;;;11.10;99.90;;;;;;4973868;28;20409;-50
2024/02/10 01:14:10;;;;;;;2.78;2.55;;;11.20;99.90;;;;;;4973354;28;20022;-46
2024/02/10 01:16:41;;;;;;;3.45;2.35;;;11.10;99.90;;;;;;4956613;28;20105;-45
2024/02/10 01:19:07;;;;;;;3.83;3.47;;;11.10;99.90;;;;;;4973737;28;20031;-46
2024/02/10 01:21:33;;;;;;;4.57;2.20;;;11.00;99.90;;;;;;4974142;28;20527;-45
2024/02/10 01:23:59;;;;;;;2.92;2.30;;;11.10;99.90;;;;;;4973379;28;20110;-46
2024/02/10 01:26:27;;;;;;;7.43;2.10;;;11.10;99.90;;;;;;4973565;28;20027;-47
2024/02/10 01:28:53;;;;;;;2.38;1.98;;;11.30;99.90;;;;;;4973186;28;20114;-46
2024/02/10 01:31:18;;;;;;;2.28;2.00;;;11.10;99.90;;;;;;4972386;28;20117;-47
2024/02/10 01:33:44;;;;;;;2.63;1.95;;;11.10;99.90;;;;;;4956124;28;20023;-48
2024/02/10 01:36:10;;;;;;;2.00;1.80;;;11.10;99.90;;;;;;4973252;28;20018;-46
2024/02/10 01:38:42;;;;;;;3.92;2.00;;;11.20;99.90;;;;;;4973188;28;20014;-45
2024/02/10 01:41:11;;;;;;;2.38;2.05;;;11.10;99.90;;;;;;4973420;28;20014;-45
2024/02/10 01:43:38;;;;;;;1.80;1.70;;;11.20;99.90;;;;;;4972414;28;20219;-45
2024/02/10 01:46:06;;;;;;;3.35;2.17;;;11.10;99.90;;;;;;4973478;28;20396;-44
2024/02/10 01:48:31;;;;;;;2.15;1.95;;;11.10;99.90;;;;;;4973298;28;20031;-43
2024/02/10 01:50:57;;;;;;;4.30;2.22;;;11.10;99.90;;;;;;4955877;28;20023;-46
2024/02/10 01:53:24;;;;;;;1.98;1.80;;;11.10;99.90;;;;;;4972926;28;20429;-44
2024/02/10 01:55:50;;;;;;;4.40;1.95;;;11.10;99.90;;;;;;4973822;28;20027;-46
2024/02/10 01:58:18;;;;;;;2.15;1.80;;;11.10;99.90;;;;;;4973736;28;20027;-45
2024/02/10 02:00:45;;;;;;;2.80;1.90;;;11.00;99.90;;;;;;4973851;28;20428;-44
2024/02/10 02:03:10;;;;;;;2.60;1.98;;;11.10;99.90;;;;;;4973033;28;20054;-47
2024/02/10 02:05:41;;;;;;;3.35;2.22;;;11.10;99.90;;;;;;4972810;28;20109;-45
2024/02/10 02:08:08;;;;;;;4.75;2.30;;;11.10;99.90;;;;;;4972874;28;20421;-44
2024/02/10 02:10:34;;;;;;;6.50;3.85;;;11.10;99.90;;;;;;4972989;28;20023;-45
2024/02/10 02:12:59;;;;;;;8.45;4.75;;;11.10;99.90;;;;;;4972751;28;20396;-45
2024/02/10 02:15:30;;;;;;;6.00;4.57;;;11.00;99.90;;;;;;4972693;28;20019;-45
2024/02/10 02:17:57;;;;;;;9.18;5.45;;;11.10;99.90;;;;;;4955453;28;20023;-45
2024/02/10 02:20:23;;;;;;;9.35;6.18;;;11.10;99.90;;;;;;4972884;28;20173;-44
2024/02/10 02:22:53;;;;;;;9.82;7.28;;;11.20;99.90;;;;;;4955963;28;20026;-45
2024/02/10 02:25:19;;;;;;;10.10;7.00;;;11.20;99.90;;;;;;4973798;28;20026;-44
2024/02/10 02:27:45;;;;;;;8.90;7.22;;;11.20;99.90;;;;;;4956285;28;20027;-44
2024/02/10 02:30:11;;;;;;;11.63;7.43;;;11.20;99.90;;;;;;4955093;28;20027;-49
2024/02/10 02:32:36;;;;;;;12.20;7.47;;;11.20;99.90;;;;;;4972551;28;20062;-49
2024/02/10 02:35:09;;;;;;;11.57;6.88;;;11.20;99.90;;;;;;4972420;28;20058;-44
2024/02/10 02:37:40;;;;;;;9.57;7.05;;;11.30;99.90;;;;;;4955132;28;20563;-44
2024/02/10 02:40:07;;;;;;;9.30;6.70;;;11.20;99.90;;;;;;4955269;28;20460;-45
2024/02/10 02:42:33;;;;;;;8.43;5.57;;;11.20;99.90;;;;;;4972514;28;20113;-46
2024/02/10 02:45:03;;;;;;;6.93;4.63;;;11.20;99.90;;;;;;4971987;28;20102;-49
2024/02/10 02:47:32;;;;;;;6.40;4.82;;;11.10;99.90;;;;;;4972774;28;20031;-50
2024/02/10 02:50:00;;;;;;;6.45;5.05;;;11.10;99.90;;;;;;4972097;28;20054;-48
2024/02/10 02:52:27;;;;;;;4.05;3.63;;;11.10;99.90;;;;;;4972413;28;20511;-45
2024/02/10 02:54:56;;;;;;;7.28;4.10;;;11.10;99.90;;;;;;4974157;28;20027;-45
2024/02/10 02:57:25;;;;;;;5.30;3.30;;;11.20;99.90;;;;;;4958652;28;20476;-47
2024/02/10 02:59:52;;;;;;;5.68;3.30;;;11.10;99.90;;;;;;4958814;28;20539;-44
2024/02/10 03:02:18;;;;;;;3.53;3.20;;;11.10;99.90;;;;;;4976187;28;20142;-47
2024/02/10 03:04:44;;;;;;;8.57;3.30;;;11.10;99.90;;;;;;4976021;28;20046;-47
2024/02/10 03:07:11;;;;;;;3.47;3.17;;;11.20;99.90;;;;;;4976189;28;20022;-49
2024/02/10 03:09:36;;;;;;;4.30;3.55;;;11.20;99.90;;;;;;4975956;28;20023;-44
2024/02/10 03:12:02;;;;;;;7.85;3.30;;;11.20;99.90;;;;;;4976106;28;20021;-47
2024/02/10 03:14:28;;;;;;;3.97;2.85;;;11.20;99.90;;;;;;4958424;28;20022;-49
2024/02/10 03:16:54;;;;;;;6.40;3.08;;;11.20;99.90;;;;;;4974692;28;20397;-45
2024/02/10 03:19:19;;;;;;;3.20;2.90;;;11.20;99.90;;;;;;4976020;28;20031;-44
2024/02/10 03:21:45;;;;;;;5.30;2.65;;;11.20;99.90;;;;;;4975972;28;20122;-47
2024/02/10 03:24:10;;;;;;;7.00;2.90;;;11.20;99.90;;;;;;4975520;28;20113;-45
2024/02/10 03:26:37;;;;;;;4.55;3.20;;;11.20;99.90;;;;;;4975960;28;20023;-45
2024/02/10 03:29:06;;;;;;;3.05;2.78;;;11.20;99.90;;;;;;4975850;28;20031;-45
2024/02/10 03:31:32;;;;;;;3.83;3.00;;;11.20;99.90;;;;;;4975971;28;20027;-43
2024/02/10 03:33:58;;;;;;;5.20;3.50;;;11.30;99.90;;;;;;4975984;28;20092;-45
2024/02/10 03:36:27;;;;;;;5.32;2.88;;;11.20;99.90;;;;;;4975751;28;20501;-44
2024/02/10 03:38:53;;;;;;;3.42;3.13;;;11.20;99.90;;;;;;4975867;28;20042;-45
2024/02/10 03:41:20;;;;;;;3.95;3.00;;;11.20;99.90;;;;;;4975696;28;20528;-46
2024/02/10 03:43:45;;;;;;;3.85;2.97;;;11.20;99.90;;;;;;4975539;28;20060;-46
2024/02/10 03:46:13;;;;;;;3.55;3.00;;;11.20;99.90;;;;;;4975686;28;20434;-43
2024/02/10 03:48:42;;;;;;;6.80;3.20;;;11.30;99.90;;;;;;4977130;28;20074;-48
2024/02/10 03:51:09;;;;;;;6.90;4.18;;;11.30;99.90;;;;;;4975573;28;20023;-46
2024/02/10 03:53:35;;;;;;;6.50;3.83;;;11.20;99.90;;;;;;4975743;28;20090;-44
2024/02/10 03:56:01;;;;;;;4.88;3.45;;;11.10;99.90;;;;;;4958152;28;20484;-43
2024/02/10 03:58:27;;;;;;;5.13;3.92;;;11.20;99.90;;;;;;4974746;28;20069;-46
2024/02/10 04:00:53;;;;;;;5.13;4.00;;;11.20;99.90;;;;;;4975618;28;20378;-44
2024/02/10 04:03:20;;;;;;;5.72;3.85;;;11.20;99.90;;;;;;4975015;28;20031;-44
2024/02/10 04:05:48;;;;;;;6.65;4.40;;;11.20;99.90;;;;;;4974374;28;20019;-44
2024/02/10 04:08:18;;;;;;;6.47;4.40;;;11.20;99.90;;;;;;4974767;28;20102;-55
2024/02/10 04:10:44;;;;;;;4.65;4.18;;;11.20;99.90;;;;;;4975187;28;20061;-47
2024/02/10 04:13:10;;;;;;;5.43;4.68;;;11.10;99.90;;;;;;4974719;28;20125;-49
2024/02/10 04:15:35;;;;;;;9.00;4.95;;;11.20;99.90;;;;;;4980837;28;20108;-45
2024/02/10 04:18:02;;;;;;;5.60;4.70;;;11.20;99.90;;;;;;5014005;28;20056;-44
2024/02/10 04:20:28;;;;;;;10.25;4.57;;;11.20;99.90;;;;;;5013720;28;20046;-44
2024/02/10 04:22:55;;;;;;;10.25;5.00;;;11.30;99.90;;;;;;5014089;28;20081;-44
2024/02/10 04:25:21;;;;;;;8.48;4.95;;;11.30;99.90;;;;;;5013528;28;20025;-47
2024/02/10 04:27:46;;;;;;;8.13;5.00;;;11.30;99.90;;;;;;5012093;28;20018;-46
2024/02/10 04:30:13;;;;;;;6.57;4.80;;;11.30;99.90;;;;;;5013438;28;20022;-45
2024/02/10 04:32:46;;;;;;;7.97;4.85;;;11.30;99.90;;;;;;5013671;28;20030;-50
2024/02/10 04:35:14;;;;;;;6.25;4.95;;;11.20;99.90;;;;;;5013091;28;20022;-45
2024/02/10 04:37:48;;;;;;;8.40;5.72;;;11.20;99.90;;;;;;5013480;28;20029;-48
2024/02/10 04:40:17;;;;;;;6.35;5.07;;;11.10;99.90;;;;;;5013740;28;20040;-46
2024/02/10 04:42:43;;;;;;;8.00;6.15;;;11.20;99.90;;;;;;5013465;28;20026;-46
2024/02/10 04:45:08;;;;;;;7.78;5.70;;;11.20;99.90;;;;;;5013090;28;20053;-45
2024/02/10 04:47:34;;;;;;;6.38;5.15;;;11.20;99.90;;;;;;5013393;28;20105;-43
2024/02/10 04:50:01;;;;;;;7.97;5.20;;;11.20;99.90;;;;;;5013100;28;20033;-45
2024/02/10 04:52:27;;;;;;;6.53;5.43;;;11.10;99.90;;;;;;5013266;28;20141;-44
2024/02/10 04:54:53;;;;;;;11.00;6.07;;;11.10;99.90;;;;;;5013121;28;20062;-48
2024/02/10 04:57:28;;;;;;;6.10;5.20;;;11.10;99.90;;;;;;5013479;28;20503;-45
2024/02/10 05:00:12;;;;;;;6.97;5.32;;;11.10;99.90;;;;;;5012994;28;20045;-47
2024/02/10 05:02:37;;;;;;;8.00;5.20;;;11.20;99.90;;;;;;5012908;28;20030;-45
2024/02/10 05:05:06;;;;;;;5.78;4.82;;;11.20;99.90;;;;;;5012633;28;20391;-46
2024/02/10 05:07:32;;;;;;;7.72;5.80;;;11.20;99.90;;;;;;5012995;28;20029;-46
2024/02/10 05:10:01;;;;;;;11.40;5.28;;;11.20;99.90;;;;;;5012912;28;20029;-45
2024/02/10 05:12:29;;;;;;;8.40;5.57;;;11.10;99.90;;;;;;5011888;28;20073;-50
2024/02/10 05:14:55;;;;;;;6.10;5.28;;;11.10;99.90;;;;;;5012404;28;20022;-48
2024/02/10 05:17:20;;;;;;;7.90;6.00;;;11.10;99.90;;;;;;5013313;28;20033;-50
2024/02/10 05:19:47;;;;;;;5.97;5.18;;;11.10;99.90;;;;;;4995848;28;20037;-45
2024/02/10 05:22:13;;;;;;;7.82;5.38;;;11.10;99.90;;;;;;5012538;28;20052;-44
2024/02/10 05:24:43;;;;;;;10.07;6.22;;;11.10;99.90;;;;;;5012653;28;20029;-47
2024/02/10 05:27:09;;;;;;;7.45;5.13;;;11.00;99.90;;;;;;5012869;28;20040;-45
2024/02/10 05:29:35;;;;;;;6.60;5.93;;;11.00;99.90;;;;;;5012582;28;20022;-45
2024/02/10 05:32:04;;;;;;;7.57;5.78;;;10.90;99.90;;;;;;5012629;28;20052;-48
2024/02/10 05:34:29;;;;;;;10.02;5.82;;;10.90;99.90;;;;;;4994966;28;20034;-46
2024/02/10 05:36:59;;;;;;;7.50;5.63;;;10.90;99.90;;;;;;5012890;28;20045;-46
2024/02/10 05:39:25;;;;;;;5.72;5.22;;;10.90;99.90;;;;;;5012667;28;20099;-47
2024/02/10 05:41:52;;;;;;;7.28;5.20;;;10.80;99.90;;;;;;5011260;28;20120;-46
2024/02/10 05:44:18;;;;;;;7.45;5.43;;;10.70;99.90;;;;;;5011886;28;20030;-45
2024/02/10 05:46:44;;;;;;;7.50;5.13;;;10.60;99.90;;;;;;5012403;28;20029;-47
2024/02/10 05:49:10;;;;;;;5.38;4.88;;;10.60;99.90;;;;;;4994570;28;20030;-44
2024/02/10 05:51:39;;;;;;;6.35;4.72;;;10.50;99.90;;;;;;5012895;28;20025;-49
2024/02/10 05:54:05;;;;;;;9.65;5.50;;;10.50;99.90;;;;;;5011848;28;20030;-45
2024/02/10 05:56:33;;;;;;;7.50;5.32;;;10.40;99.90;;;;;;5012468;28;20029;-44
2024/02/10 05:58:59;;;;;;;8.23;5.45;;;10.50;99.90;;;;;;5011988;28;20033;-45
2024/02/10 06:01:25;;;;;;;9.73;5.85;;;10.50;99.90;;;;;;5012342;28;20026;-47
2024/02/10 06:03:54;;;;;;;6.72;5.22;;;10.50;99.90;;;;;;4994322;28;20030;-44
2024/02/10 06:06:20;;;;;;;4.45;4.05;;;10.40;99.90;;;;;;5012001;28;20018;-45
2024/02/10 06:08:47;;;;;;;7.78;5.10;;;10.50;99.90;;;;;;5011950;28;20491;-46
2024/02/10 06:11:19;;;;;;;5.78;4.93;;;10.50;99.90;;;;;;5012290;28;20028;-46
2024/02/10 06:13:49;;;;;;;11.05;5.45;;;10.50;99.90;;;;;;5011833;28;20040;-47
2024/02/10 06:16:15;;;;;;;7.90;5.78;;;10.50;99.90;;;;;;4994200;28;20029;-48
2024/02/10 06:18:41;;;;;;;7.15;6.03;;;10.50;99.90;;;;;;5011549;28;20112;-45
2024/02/10 06:21:07;;;;;;;6.43;5.85;;;10.40;99.90;;;;;;4994292;28;20395;-50
2024/02/10 06:23:33;;;;;;;6.45;4.90;;;10.30;99.90;;;;;;5011424;28;20026;-44
2024/02/10 06:25:59;;;;;;;6.30;5.35;;;10.30;99.90;;;;;;4994172;28;20018;-51
2024/02/10 06:28:24;;;;;;;6.50;5.10;;;10.30;99.90;;;;;;4994221;28;20126;-47
2024/02/10 06:30:51;;;;;;;7.47;6.03;;;10.30;99.90;;;;;;4993947;28;20030;-46
2024/02/10 06:33:19;;;;;;;7.32;4.97;;;10.30;99.90;;;;;;4994549;28;20037;-47
2024/02/10 06:35:47;;;;;;;6.40;4.78;;;10.20;99.90;;;;;;5012886;28;20029;-46
2024/02/10 06:38:16;;;;;;;5.55;4.60;;;10.20;99.90;;;;;;5014576;28;20022;-46
2024/02/10 06:40:42;;;;;;;6.15;4.50;;;10.30;99.90;;;;;;5012605;28;20030;-46
2024/02/10 06:43:12;;;;;;;12.63;4.80;;;10.20;99.90;;;;;;5012109;28;20119;-46
2024/02/10 06:45:39;;;;;;;6.85;5.00;;;10.30;99.90;;;;;;5012441;28;20702;-45
2024/02/10 06:48:05;;;;;;;7.32;5.32;;;10.20;99.90;;;;;;5011745;28;20018;-47
2024/02/10 06:50:32;;;;;;;11.07;5.70;;;10.20;99.90;;;;;;4994041;28;20033;-46
2024/02/10 06:53:00;;;;;;;9.05;5.30;;;10.10;99.90;;;;;;5011831;28;20018;-48
2024/02/10 06:55:26;;;;;;;10.40;5.82;;;10.10;99.90;;;;;;4993371;28;20029;-48
2024/02/10 06:57:55;;;;;;;7.88;5.32;;;10.10;99.90;;;;;;5011385;28;20057;-50
2024/02/10 07:00:22;;;;;;;5.30;4.25;;;10.00;99.90;;;;;;5024581;23;20038;-44
2024/02/10 07:02:48;;;;;;;6.97;4.00;;;10.10;99.90;;;;;;5010902;28;20033;-46
2024/02/10 07:05:18;;;;;;;4.07;3.13;;;10.20;99.90;;;;;;4996198;28;20485;-45
2024/02/10 07:07:46;;;;;;;3.53;3.03;;;10.30;99.90;;;;;;4991785;28;20058;-44
2024/02/10 07:10:15;;;;;;;6.90;4.28;;;10.40;99.90;;;;;;5010655;28;20018;-43
2024/02/10 07:12:45;;;;;;;5.22;4.50;;;10.50;99.90;;;;;;5011023;28;20030;-47
2024/02/10 07:15:18;;;;;;;7.43;4.63;;;10.70;99.90;;;;;;5010885;28;20380;-46
2024/02/10 07:17:52;;;;;;;6.63;3.63;;;10.90;99.90;;;;;;5011021;28;20084;-44
2024/02/10 07:20:22;;;;;;;4.97;3.55;;;11.20;99.90;;;;;;5010667;28;20104;-46
2024/02/10 07:22:55;;;;;;;2.83;2.63;;;11.50;99.90;;;;;;5011099;28;20045;-46
2024/02/10 07:25:21;;;;;;;2.60;2.40;;;11.70;99.90;;;;;;5010729;28;20022;-45
2024/02/10 07:27:50;;;;;;;4.10;3.50;;;11.80;99.90;;;;;;5010976;28;20575;-50
2024/02/10 07:30:17;;;;;;;2.83;2.53;;;11.70;99.90;;;;;;4993130;28;20022;-49
2024/02/10 07:32:44;;;;;;;3.17;2.40;;;11.80;99.90;;;;;;5010741;28;20088;-44
2024/02/10 07:35:10;;;;;;;4.97;2.92;;;11.60;99.90;;;;;;5010800;28;20455;-45
2024/02/10 07:37:36;;;;;;;3.47;2.80;;;11.60;99.90;;;;;;5010913;28;20038;-48
2024/02/10 07:40:04;;;;;;;3.30;3.00;;;11.50;99.90;;;;;;5010859;28;20110;-46
2024/02/10 07:42:29;;;;;;;9.75;3.55;;;11.50;99.90;;;;;;5013145;28;20026;-46
2024/02/10 07:44:55;;;;;;;7.57;3.88;;;11.30;99.90;;;;;;5013932;28;20051;-44
2024/02/10 07:47:24;;;;;;;4.70;4.30;;;11.20;99.90;;;;;;5014301;28;20156;-45
2024/02/10 07:49:52;;;;;;;4.18;3.78;;;11.20;99.90;;;;;;5013877;28;20025;-46
2024/02/10 07:52:20;;;;;;;54.80;2.97;;;11.10;99.90;;;;;;5014186;28;20022;-45
2024/02/10 07:54:47;;;;;;;18.85;3.10;;;11.00;99.90;;;;;;5014087;28;20125;-49
2024/02/10 07:57:21;;;;;;;9.65;3.45;;;10.90;99.90;;;;;;5014822;28;20080;-42
2024/02/10 07:59:50;;;;;;;6.70;4.07;;;10.60;99.90;;;;;;5013830;28;20030;-45
2024/02/10 08:02:16;;;;;;;8.23;3.75;;;10.50;99.90;;;;;;5014117;28;20076;-44
2024/02/10 08:04:43;;;;;;;6.88;4.20;;;10.40;99.90;;;;;;5013504;28;20030;-49
2024/02/10 08:07:08;;;;;;;6.57;3.50;;;10.30;99.90;;;;;;5013676;28;20101;-49
2024/02/10 08:09:34;;;;;;;5.00;4.47;;;10.40;99.90;;;;;;5014538;28;20057;-45
2024/02/10 08:11:59;;;;;;;5.93;4.50;;;10.40;99.90;;;;;;5014085;28;20033;-47
2024/02/10 08:14:25;;;;;;;5.70;4.22;;;10.40;99.90;;;;;;5013688;28;20438;-47
2024/02/10 08:16:51;;;;;;;5.70;4.38;;;10.50;99.90;;;;;;5013343;28;20516;-50
2024/02/10 08:19:18;;;;;;;9.30;4.47;;;10.50;99.90;;;;;;5013534;28;20033;-44
2024/02/10 08:21:44;;;;;;;4.15;3.72;;;10.60;99.90;;;;;;5013594;28;20049;-47
2024/02/10 08:24:11;;;;;;;3.65;3.35;;;10.50;99.90;;;;;;5013176;28;20026;-46
2024/02/10 08:26:38;;;;;;;3.47;3.10;;;10.50;99.90;;;;;;5013510;28;20053;-46
2024/02/10 08:29:03;;;;;;;3.10;2.90;;;10.50;99.90;;;;;;4995995;28;20022;-44
2024/02/10 08:31:34;;;;;;;3.50;2.90;;;10.50;99.90;;;;;;4995531;28;20022;-44
2024/02/10 08:34:00;;;;;;;8.18;3.13;;;10.50;99.90;;;;;;5013128;28;20030;-45
2024/02/10 08:36:28;;;;;;;3.80;3.15;;;10.60;99.90;;;;;;4996125;28;20022;-46
2024/02/10 08:38:56;;;;;;;4.43;3.00;;;10.60;99.90;;;;;;5013212;28;20097;-42
2024/02/10 08:41:22;;;;;;;3.30;2.97;;;10.70;99.90;;;;;;5013317;28;20398;-48
2024/02/10 08:43:48;;;;;;;9.23;3.20;;;10.70;99.90;;;;;;5013026;28;20021;-48
2024/02/10 08:46:17;;;;;;;3.95;3.45;;;10.80;99.90;;;;;;5012885;28;20419;-48
2024/02/10 08:48:43;;;;;;;6.28;2.83;;;10.90;99.90;;;;;;5013103;28;20061;-50
2024/02/10 08:51:12;;;;;;;5.68;3.00;;;11.10;99.90;;;;;;5013300;28;20099;-48
2024/02/10 08:53:41;;;;;;;3.60;3.30;;;11.20;99.90;;;;;;5012424;28;20026;-44
2024/02/10 08:56:10;;;;;;;4.72;4.00;;;11.20;99.90;;;;;;5012849;28;20117;-44
2024/02/10 08:58:39;;;;;;;3.88;2.60;;;11.20;99.90;;;;;;5013635;28;20081;-46
2024/02/10 09:01:06;;;;;;;3.08;2.80;;;11.30;99.90;;;;;;5013134;28;20049;-45
2024/02/10 09:03:32;;;;;;;6.28;3.17;;;11.30;99.90;;;;;;5012833;28;20018;-44
2024/02/10 09:05:58;;;;;;;5.32;3.20;;;11.40;99.90;;;;;;5012838;28;20018;-45
2024/02/10 09:08:23;;;;;;;3.88;2.80;;;11.50;99.90;;;;;;5012845;28;20080;-44
2024/02/10 09:10:49;;;;;;;6.55;2.83;;;11.50;99.90;;;;;;5012333;28;20026;-50
2024/02/10 09:13:15;;;;;;;6.90;3.10;;;11.50;99.90;;;;;;5012395;28;20029;-50
2024/02/10 09:15:40;;;;;;;3.83;2.92;;;11.60;99.90;;;;;;4995074;28;20033;-45
2024/02/10 09:18:06;;;;;;;3.70;3.17;;;11.60;99.90;;;;;;5012490;28;20026;-46
2024/02/10 09:20:32;;;;;;;3.90;3.05;;;11.70;99.90;;;;;;5012334;28;20395;-46
2024/02/10 09:22:59;;;;;;;6.38;2.35;;;11.90;99.90;;;;;;5012114;28;20042;-44
2024/02/10 09:25:26;;;;;;;4.93;3.10;;;12.00;99.90;;;;;;5012200;28;20029;-44
2024/02/10 09:27:51;;;;;;;2.72;2.50;;;12.10;99.90;;;;;;5012294;28;20484;-44
2024/02/10 09:30:17;;;;;;;4.40;2.53;;;12.00;99.90;;;;;;4994372;28;20032;-45
2024/02/10 09:32:45;;;;;;;2.95;2.40;;;12.00;99.90;;;;;;5011696;28;20112;-47
2024/02/10 09:35:11;;;;;;;3.42;2.10;;;12.10;99.90;;;;;;5011766;28;20040;-48
2024/02/10 09:37:38;;;;;;;2.97;2.70;;;12.10;99.90;;;;;;5012405;28;20045;-44
2024/02/10 09:40:07;;;;;;;3.35;2.30;;;12.10;99.90;;;;;;5012173;28;20522;-46
2024/02/10 09:42:38;;;;;;;5.97;2.45;;;12.10;99.90;;;;;;4994976;28;20459;-43
2024/02/10 09:45:07;;;;;;;2.45;1.98;;;12.20;99.90;;;;;;5008303;28;20064;-43
2024/02/10 09:47:34;;;;;;;3.45;2.20;;;12.20;99.90;;;;;;5004767;28;20026;-49
2024/02/10 09:50:02;;;;;;;3.55;2.45;;;12.20;99.90;;;;;;5011856;28;20486;-46
2024/02/10 09:52:28;;;;;;;3.03;2.10;;;12.10;99.90;;;;;;4996601;28;20034;-44
2024/02/10 09:54:55;;;;;;;2.40;2.20;;;12.10;99.90;;;;;;4974414;28;20048;-46
2024/02/10 09:57:22;;;;;;;4.05;2.40;;;12.10;99.90;;;;;;4992327;28;20498;-45
2024/02/10 09:59:48;;;;;;;5.80;2.38;;;12.10;99.90;;;;;;4992267;28;20030;-43
2024/02/10 10:02:14;;;;;;;3.28;2.13;;;12.10;99.90;;;;;;4992285;28;20539;-45
2024/02/10 10:04:40;;;;;;;2.70;1.92;;;12.20;99.90;;;;;;5006547;28;20108;-47
2024/02/10 10:07:08;;;;;;;2.47;2.28;;;12.10;99.90;;;;;;5011578;28;20104;-44
2024/02/10 10:09:33;;;;;;;3.25;2.47;;;12.00;99.90;;;;;;5011341;28;20025;-43
2024/02/10 10:11:59;;;;;;;3.10;2.33;;;12.10;99.90;;;;;;5011780;28;20430;-49
2024/02/10 10:14:24;;;;;;;2.53;2.22;;;12.10;99.90;;;;;;5011265;28;20026;-45
2024/02/10 10:17:13;;;;;;;3.05;2.30;;;12.20;99.90;;;;;;5011231;28;20506;-43
2024/02/10 10:19:39;;;;;;;4.55;3.20;;;12.30;99.90;;;;;;5001711;28;20387;-45
2024/02/10 10:22:04;;;;;;;4.07;2.13;;;12.30;99.90;;;;;;4998490;28;20034;-42
2024/02/10 10:24:30;;;;;;;6.40;3.17;;;12.40;99.90;;;;;;4990267;28;20023;-45
2024/02/10 10:26:56;;;;;;;5.40;2.50;;;12.40;99.90;;;;;;5010764;28;20028;-43
2024/02/10 10:29:22;;;;;;;6.32;2.20;;;12.50;99.90;;;;;;5010951;28;20036;-43
2024/02/10 10:31:49;;;;;;;2.65;2.33;;;12.50;99.90;;;;;;5000119;28;20454;-42
2024/02/10 10:34:19;;;;;;;2.55;2.35;;;12.50;99.90;;;;;;4995220;28;20056;-47
2024/02/10 10:36:48;;;;;;;4.53;2.15;;;12.50;99.90;;;;;;5003983;28;20385;-43
2024/02/10 10:39:14;;;;;;;6.10;2.45;;;12.50;99.90;;;;;;4993143;28;20026;-50
2024/02/10 10:41:42;;;;;;;6.68;2.53;;;12.50;99.90;;;;;;5001641;28;20045;-45
2024/02/10 10:44:09;;;;;;;3.65;3.08;;;12.50;99.90;;;;;;5010909;28;20049;-46
2024/02/10 10:46:35;;;;;;;5.20;2.60;;;12.50;99.90;;;;;;5011214;28;20026;-43
2024/02/10 10:49:01;;;;;;;3.08;2.80;;;12.60;99.90;;;;;;4993607;28;20491;-46
2024/02/10 10:51:35;;;;;;;6.45;3.25;;;12.60;99.90;;;;;;5011281;28;20220;-49
2024/02/10 10:54:05;;;;;;;5.10;2.72;;;12.60;99.90;;;;;;5009428;28;20022;-48
2024/02/10 10:56:31;;;;;;;5.10;3.00;;;12.70;99.90;;;;;;5005903;28;20507;-47
2024/02/10 10:59:01;;;;;;;4.30;2.47;;;12.70;99.90;;;;;;4999927;28;20538;-46
2024/02/10 11:01:29;;;;;;;8.00;3.08;;;12.80;99.90;;;;;;5011336;28;20033;-46
2024/02/10 11:03:59;;;;;;;10.55;6.70;;;12.80;99.90;;;;;;4996086;28;20026;-43
2024/02/10 11:06:28;;;;;;;18.23;9.85;;;12.70;99.90;;;;;;4991293;28;20027;-43
2024/02/10 11:08:54;;;;;;;17.27;10.80;;;12.80;99.90;;;;;;4996888;28;20160;-44
2024/02/10 11:11:21;;;;;;;6.20;3.08;;;12.60;99.90;;;;;;5001904;28;20037;-44
2024/02/10 11:13:46;;;;;;;4.90;2.80;;;12.60;99.90;;;;;;4998098;28;20071;-44
2024/02/10 11:16:13;;;;;;;5.10;3.30;;;12.60;99.90;;;;;;4993127;28;20481;-44
2024/02/10 11:18:56;;;;;;;5.15;3.85;;;12.70;99.90;;;;;;5014274;28;20018;-44
2024/02/10 11:21:21;;;;;;;4.97;3.15;;;12.60;99.90;;;;;;5014654;28;20029;-44
2024/02/10 11:24:07;;;;;;;8.10;3.45;;;12.50;99.90;;;;;;5014305;28;20018;-46
2024/02/10 11:26:39;;;;;;;7.40;3.92;;;12.60;99.90;;;;;;5013172;28;20030;-40
2024/02/10 11:29:06;;;;;;;8.93;4.80;;;12.60;99.90;;;;;;5002971;28;20022;-45
2024/02/10 11:31:41;;;;;;;5.07;3.85;;;12.70;99.90;;;;;;5014150;28;20030;-48
2024/02/10 11:34:17;;;;;;;;;;;12.70;99.90;;;;;;5015082;28;20029;-46
2024/02/10 11:36:53;;;;;;;5.40;3.40;;;12.70;99.90;;;;;;5005182;28;19905;-51
2024/02/10 11:39:24;;;;;;;7.72;3.42;;;12.70;99.90;;;;;;5014260;28;20482;-45
2024/02/10 11:41:58;;;;;;;8.80;4.13;;;12.90;99.90;;;;;;5014139;28;20483;-48
2024/02/10 11:44:26;;;;;;;5.82;3.72;;;13.00;99.90;;;;;;5008697;28;20109;-47
2024/02/10 11:46:52;;;;;;;4.93;3.60;;;13.10;99.90;;;;;;5009758;28;20026;-47
2024/02/10 11:49:17;;;;;;;8.20;3.40;;;13.00;99.90;;;;;;4997534;28;20096;-44
2024/02/10 11:51:43;;;;;;;5.47;3.45;;;13.10;99.90;;;;;;5004361;28;20061;-47
2024/02/10 11:54:08;;;;;;;3.88;3.08;;;13.20;99.90;;;;;;5013613;28;20549;-40
2024/02/10 11:56:34;;;;;;;7.15;2.95;;;13.20;99.90;;;;;;4997492;28;20021;-42
2024/02/10 11:59:03;;;;;;;7.10;3.20;;;13.20;99.90;;;;;;5002354;28;20109;-51
2024/02/10 12:01:30;;;;;;;4.22;3.42;;;13.30;99.90;;;;;;5005933;28;20042;-50
2024/02/10 12:04:01;;;;;;;7.65;4.53;;;13.40;99.90;;;;;;5012268;28;20129;-49
2024/02/10 12:06:27;;;;;;;5.53;3.78;;;13.40;99.90;;;;;;5004151;28;20076;-49
2024/02/10 12:08:54;;;;;;;13.32;3.85;;;13.40;99.90;;;;;;5020339;28;20554;-51
2024/02/10 12:11:24;;;;;;;6.03;3.97;;;13.40;99.90;;;;;;5007837;28;20466;-57
2024/02/10 12:13:50;;;;;;;5.97;3.65;;;13.30;99.90;;;;;;5011036;28;20053;-54
2024/02/10 12:16:16;;;;;;;9.07;3.97;;;13.30;99.90;;;;;;5004619;28;20026;-53
2024/02/10 12:18:47;;;;;;;5.85;3.47;;;13.30;99.90;;;;;;5006086;28;20032;-59
2024/02/10 12:21:19;;;;;;;12.82;4.20;;;13.30;99.90;;;;;;5003712;28;20135;-45
2024/02/10 12:23:47;;;;;;;6.15;3.50;;;13.30;99.90;;;;;;5003206;28;20030;-53
2024/02/10 12:26:12;;;;;;;10.10;4.22;;;13.40;99.90;;;;;;5012663;28;20049;-50
2024/02/10 12:28:38;;;;;;;8.32;3.70;;;13.40;99.90;;;;;;4995835;28;20479;-43
2024/02/10 12:31:04;;;;;;;13.25;3.90;;;13.30;99.90;;;;;;5002033;28;20022;-56
2024/02/10 12:33:29;;;;;;;12.40;5.20;;;13.30;99.90;;;;;;4996553;28;20118;-56
2024/02/10 12:35:55;;;;;;;10.05;3.70;;;13.30;99.90;;;;;;5020198;28;20045;-55
2024/02/10 12:38:25;;;;;;;8.32;3.80;;;13.20;99.90;;;;;;5022706;28;20047;-47
2024/02/10 12:40:54;;;;;;;4.10;3.22;;;13.20;99.90;;;;;;5028684;28;20203;-44
2024/02/10 12:43:21;;;;;;;9.55;3.80;;;13.30;99.90;;;;;;5018035;28;20021;-44
2024/02/10 12:45:47;;;;;;;6.03;3.65;;;13.30;99.90;;;;;;5023888;28;20033;-45